Time;durP1;ratioP1;P1;durP2;ratioP2;P2;SDS_P1;SDS_P2;PMS_P1;PMS_P2;Temp;Humidity;BMP_temperature;BMP_pressure;BME280_temperature;BME280_humidity;BME280_pressure;Samples;Min_cycle;Max_cycle;Signal;HPM_P1;HPM_P2
2022/03/06 00:02:00;;;;;;;;;;;3.80;99.90;;;;;;5113313;28;19931;-80
2022/03/06 00:04:25;;;;;;;;;;;3.80;99.90;;;;;;5096480;28;19934;-82
2022/03/06 00:06:51;;;;;;;;;;;3.80;99.90;;;;;;5112902;28;19939;-80
2022/03/06 00:09:16;;;;;;;;;;;3.90;99.90;;;;;;5107756;28;19924;-80
2022/03/06 00:11:42;;;;;;;;;;;3.80;99.90;;;;;;5109345;28;20367;-80
2022/03/06 00:14:08;;;;;;;;;;;3.80;99.90;;;;;;5113476;28;20051;-82
2022/03/06 00:16:33;;;;;;;;;;;3.90;99.90;;;;;;5147744;27;19969;-80
2022/03/06 00:18:59;;;;;;;;;;;3.80;99.90;;;;;;5127424;27;19932;-81
2022/03/06 00:21:24;;;;;;;;;;;3.80;99.90;;;;;;5102304;28;20015;-80
2022/03/06 00:23:50;;;;;;;;;;;3.70;99.90;;;;;;5102977;28;19931;-80
2022/03/06 00:26:16;;;;;;;;;;;3.80;99.90;;;;;;5104313;28;19932;-80
2022/03/06 00:28:41;;;;;;;;;;;3.70;99.90;;;;;;5112816;28;20387;-80
2022/03/06 00:31:07;;;;;;;;;;;3.60;99.90;;;;;;5113149;28;20040;-80
2022/03/06 00:33:33;;;;;;;;;;;3.70;99.90;;;;;;5094746;28;19931;-81
2022/03/06 00:35:58;;;;;;;;;;;3.60;99.90;;;;;;5095996;28;19927;-80
2022/03/06 00:38:24;;;;;;;;;;;3.60;99.90;;;;;;5113097;28;19924;-81
2022/03/06 00:40:49;;;;;;;;;;;3.60;99.90;;;;;;5113025;28;19949;-80
2022/03/06 00:43:17;;;;;;;;;;;3.70;99.90;;;;;;5112831;28;19931;-80
2022/03/06 00:45:42;;;;;;;;;;;3.80;99.90;;;;;;5079258;28;19931;-80
2022/03/06 00:48:08;;;;;;;;;;;3.70;99.90;;;;;;5147448;27;19924;-80
2022/03/06 00:50:37;;;;;;;;;;;3.70;99.90;;;;;;5112637;28;19930;-80
2022/03/06 00:53:03;;;;;;;;;;;3.70;99.90;;;;;;5112255;28;19924;-80
2022/03/06 00:55:30;;;;;;;;;;;3.70;99.90;;;;;;5112754;28;19924;-80
2022/03/06 00:57:56;;;;;;;;;;;3.70;99.90;;;;;;5112897;28;19924;-80
2022/03/06 01:00:22;;;;;;;;;;;3.60;99.90;;;;;;5111252;28;19930;-80
2022/03/06 01:02:47;;;;;;;;;;;3.70;99.90;;;;;;5094568;28;19927;-80
2022/03/06 01:05:13;;;;;;;;;;;3.70;99.90;;;;;;5074136;28;20368;-81
2022/03/06 01:07:39;;;;;;;;;;;3.80;99.90;;;;;;5086878;28;19946;-80
2022/03/06 01:10:05;;;;;;;;;;;3.80;99.90;;;;;;5098914;28;19924;-80
2022/03/06 01:12:31;;;;;;;;;;;3.80;99.90;;;;;;5095021;28;20355;-80
2022/03/06 01:14:56;;;;;;;;;;;3.80;99.90;;;;;;5110518;28;19923;-80
2022/03/06 01:17:22;;;;;;;;;;;3.80;99.90;;;;;;5133979;27;19924;-80
2022/03/06 01:19:49;;;;;;;;;;;3.80;99.90;;;;;;5116261;28;20366;-80
2022/03/06 01:22:15;;;;;;;;;;;3.80;99.90;;;;;;5116561;28;19924;-81
2022/03/06 01:24:41;;;;;;;;;;;3.90;99.90;;;;;;5076638;28;19938;-80
2022/03/06 01:27:06;;;;;;;;;;;3.80;99.90;;;;;;5129729;27;20390;-81
2022/03/06 01:29:32;;;;;;;;;;;3.80;99.90;;;;;;5115765;28;20033;-81
2022/03/06 01:31:57;;;;;;;;;;;3.80;99.90;;;;;;5099578;28;19923;-80
2022/03/06 01:34:23;;;;;;;;;;;3.80;99.90;;;;;;5098730;28;19928;-82
2022/03/06 01:36:49;;;;;;;;;;;3.80;99.90;;;;;;5132126;27;20014;-81
2022/03/06 01:39:14;;;;;;;;;;;3.80;99.90;;;;;;5090142;28;19924;-81
2022/03/06 01:41:40;;;;;;;;;;;3.80;99.90;;;;;;5107974;28;19924;-81
2022/03/06 01:44:10;;;;;;;;;;;3.80;99.90;;;;;;5115933;27;19924;-80
2022/03/06 01:46:36;;;;;;;;;;;3.80;99.90;;;;;;5099186;28;20374;-85
2022/03/06 01:49:02;;;;;;;;;;;3.70;99.90;;;;;;5115851;28;20005;-81
2022/03/06 01:51:27;;;;;;;;;;;3.80;99.90;;;;;;5094432;28;20356;-81
2022/03/06 01:53:53;;;;;;;;;;;3.80;99.90;;;;;;5115918;28;19931;-81
2022/03/06 01:56:19;;;;;;;;;;;3.80;99.90;;;;;;5115622;28;20320;-80
2022/03/06 01:58:45;;;;;;;;;;;3.80;99.90;;;;;;5083420;28;20007;-80
2022/03/06 02:01:11;;;;;;;;;;;3.80;99.90;;;;;;5112717;27;19930;-80
2022/03/06 02:03:36;;;;;;;;;;;3.80;99.90;;;;;;5111066;28;20007;-80
2022/03/06 02:06:04;;;;;;;;;;;3.90;99.90;;;;;;5132783;27;19923;-80
2022/03/06 02:08:30;;;;;;;;;;;3.90;99.90;;;;;;5115859;28;19923;-80
2022/03/06 02:10:55;;;;;;;;;;;4.00;99.90;;;;;;5132539;27;20006;-80
2022/03/06 02:13:21;;;;;;;;;;;3.90;99.90;;;;;;5081577;28;20422;-80
2022/03/06 02:15:47;;;;;;;;;;;4.00;99.90;;;;;;5081598;28;19924;-81
2022/03/06 02:18:12;;;;;;;;;;;4.00;99.90;;;;;;5115520;28;19924;-80
2022/03/06 02:20:38;;;;;;;;;;;4.00;99.90;;;;;;5149584;27;19931;-81
2022/03/06 02:23:04;;;;;;;;;;;3.90;99.90;;;;;;5117560;27;19924;-81
2022/03/06 02:25:31;;;;;;;;;;;3.90;99.90;;;;;;5124485;27;19930;-80
2022/03/06 02:27:58;;;;;;;;;;;3.90;99.90;;;;;;5097247;28;19924;-80
2022/03/06 02:30:25;;;;;;;;;;;3.90;99.90;;;;;;5115163;28;19979;-80
2022/03/06 02:32:51;;;;;;;;;;;3.90;99.90;;;;;;5096731;28;20279;-81
2022/03/06 02:35:17;;;;;;;;;;;3.90;99.90;;;;;;5115186;28;19930;-80
2022/03/06 02:37:43;;;;;;;;;;;3.90;99.90;;;;;;5129955;27;19924;-82
2022/03/06 02:40:10;;;;;;;;;;;3.90;99.90;;;;;;5114131;28;19931;-81
2022/03/06 02:42:36;;;;;;;;;;;3.90;99.90;;;;;;5090198;28;19947;-80
2022/03/06 02:45:08;;;;;;;;;;;3.90;99.90;;;;;;5094641;28;20018;-80
2022/03/06 02:47:34;;;;;;;;;;;3.90;99.90;;;;;;5104977;28;20015;-80
2022/03/06 02:50:00;;;;;;;;;;;3.80;99.90;;;;;;5079616;28;20014;-82
2022/03/06 02:52:25;;;;;;;;;;;3.80;99.90;;;;;;5127845;27;19989;-80
2022/03/06 02:54:51;;;;;;;;;;;3.80;99.90;;;;;;5101571;28;19928;-80
2022/03/06 02:57:16;;;;;;;;;;;3.70;99.90;;;;;;5096866;28;19932;-81
2022/03/06 02:59:42;;;;;;;;;;;3.80;99.90;;;;;;5076595;28;19935;-80
2022/03/06 03:02:07;;;;;;;;;;;3.70;99.90;;;;;;5137714;27;20367;-81
2022/03/06 03:04:33;;;;;;;;;;;3.70;99.90;;;;;;5094528;28;20022;-80
2022/03/06 03:06:59;;;;;;;;;;;3.70;99.90;;;;;;5122873;27;19924;-80
2022/03/06 03:09:25;;;;;;;;;;;3.70;99.90;;;;;;5131650;27;19931;-80
2022/03/06 03:11:51;;;;;;;;;;;3.60;99.90;;;;;;5131474;27;20405;-80
2022/03/06 03:14:17;;;;;;;;;;;3.70;99.90;;;;;;5116863;27;19924;-81
2022/03/06 03:16:43;;;;;;;;;;;3.70;99.90;;;;;;5094118;28;19924;-81
2022/03/06 03:19:09;;;;;;;;;;;3.60;99.90;;;;;;5114333;28;20368;-80
2022/03/06 03:21:34;;;;;;;;;;;3.60;99.90;;;;;;5097555;28;19924;-80
2022/03/06 03:24:00;;;;;;;;;;;3.60;99.90;;;;;;5105316;28;19924;-83
2022/03/06 03:26:25;;;;;;;;;;;3.60;99.90;;;;;;5122265;27;19924;-81
2022/03/06 03:28:51;;;;;;;;;;;3.50;99.90;;;;;;5095818;28;19988;-80
2022/03/06 03:31:17;;;;;;;;;;;3.60;99.90;;;;;;5097211;28;19930;-81
2022/03/06 03:33:43;;;;;;;;;;;3.50;99.90;;;;;;5097232;28;19932;-80
2022/03/06 03:36:09;;;;;;;;;;;3.50;99.90;;;;;;5103626;28;19927;-81
2022/03/06 03:38:35;;;;;;;;;;;3.50;99.90;;;;;;5108721;28;19975;-81
2022/03/06 03:41:01;;;;;;;;;;;3.50;99.90;;;;;;5093127;28;19979;-80
2022/03/06 03:43:28;;;;;;;;;;;3.40;99.90;;;;;;5084492;28;19924;-80
2022/03/06 03:45:53;;;;;;;;;;;3.40;99.90;;;;;;5131340;27;20007;-80
2022/03/06 03:48:19;;;;;;;;;;;3.40;99.90;;;;;;5131042;27;19967;-81
2022/03/06 03:50:44;;;;;;;;;;;3.50;99.90;;;;;;5113905;28;19968;-80
2022/03/06 03:53:10;;;;;;;;;;;3.40;99.90;;;;;;5113171;28;19924;-80
2022/03/06 03:55:36;;;;;;;;;;;3.40;99.90;;;;;;5113710;28;19972;-80
2022/03/06 03:58:01;;;;;;;;;;;3.40;99.90;;;;;;5113527;28;19928;-81
2022/03/06 04:00:27;;;;;;;;;;;3.50;99.90;;;;;;5130388;27;19938;-81
2022/03/06 04:02:53;;;;;;;;;;;3.40;99.90;;;;;;5112532;28;19928;-81
2022/03/06 04:05:18;;;;;;;;;;;3.40;99.90;;;;;;5096499;28;20343;-81
2022/03/06 04:07:44;;;;;;;;;;;3.40;99.90;;;;;;5113554;28;19924;-80
2022/03/06 04:10:11;;;;;;;;;;;3.40;99.90;;;;;;5095744;28;20227;-81
2022/03/06 04:12:36;;;;;;;;;;;3.40;99.90;;;;;;5096347;28;20359;-81
2022/03/06 04:15:02;;;;;;;;;;;3.40;99.90;;;;;;5096479;28;19931;-81
2022/03/06 04:17:28;;;;;;;;;;;3.40;99.90;;;;;;5130057;27;20010;-80
2022/03/06 04:19:53;;;;;;;;;;;3.40;99.90;;;;;;5109945;28;19967;-81
2022/03/06 04:22:19;;;;;;;;;;;3.40;99.90;;;;;;5096598;28;19924;-81
2022/03/06 04:24:44;;;;;;;;;;;3.40;99.90;;;;;;5130437;27;19965;-80
2022/03/06 04:27:10;;;;;;;;;;;3.40;99.90;;;;;;5119526;27;19924;-80
2022/03/06 04:29:36;;;;;;;;;;;3.40;99.90;;;;;;5114046;27;19924;-80
2022/03/06 04:32:03;;;;;;;;;;;3.40;99.90;;;;;;5074937;28;19928;-81
2022/03/06 04:34:29;;;;;;;;;;;3.40;99.90;;;;;;5126392;27;19967;-81
2022/03/06 04:36:54;;;;;;;;;;;3.30;99.90;;;;;;5125412;27;20354;-81
2022/03/06 04:39:20;;;;;;;;;;;3.40;99.90;;;;;;5095686;28;20398;-80
2022/03/06 04:41:46;;;;;;;;;;;3.40;99.90;;;;;;5096035;28;20010;-80
2022/03/06 04:44:13;;;;;;;;;;;3.40;99.90;;;;;;5078811;28;19959;-80
2022/03/06 04:46:38;;;;;;;;;;;3.40;99.90;;;;;;5129636;28;19999;-80
2022/03/06 04:49:04;;;;;;;;;;;3.40;99.90;;;;;;5112262;28;19982;-80
2022/03/06 04:51:30;;;;;;;;;;;3.40;99.90;;;;;;5129397;27;19994;-80
2022/03/06 04:53:56;;;;;;;;;;;3.40;99.90;;;;;;5112078;28;19923;-82
2022/03/06 04:56:21;;;;;;;;;;;3.40;99.90;;;;;;5112745;28;19934;-80
2022/03/06 04:58:47;;;;;;;;;;;3.30;99.90;;;;;;5112925;28;20282;-80
2022/03/06 05:01:13;;;;;;;;;;;3.40;99.90;;;;;;5095313;28;19928;-80
2022/03/06 05:03:39;;;;;;;;;;;3.40;99.90;;;;;;5113207;28;19924;-80
2022/03/06 05:06:05;;;;;;;;;;;3.30;99.90;;;;;;5095797;28;19924;-80
2022/03/06 05:08:30;;;;;;;;;;;3.40;99.90;;;;;;5129837;28;20351;-80
2022/03/06 05:10:56;;;;;;;;;;;3.30;99.90;;;;;;5129723;28;19931;-83
2022/03/06 05:13:22;;;;;;;;;;;3.40;99.90;;;;;;5078808;28;19928;-80
2022/03/06 05:15:47;;;;;;;;;;;3.40;99.90;;;;;;5095761;28;19924;-80
2022/03/06 05:18:13;;;;;;;;;;;3.40;99.90;;;;;;5112684;28;20011;-80
2022/03/06 05:20:39;;;;;;;;;;;3.30;99.90;;;;;;5095960;28;19923;-80
2022/03/06 05:23:04;;;;;;;;;;;3.30;99.90;;;;;;5128518;28;19924;-80
2022/03/06 05:25:30;;;;;;;;;;;3.40;99.90;;;;;;5111152;28;19924;-84
2022/03/06 05:27:56;;;;;;;;;;;3.30;99.90;;;;;;5095384;28;19927;-80
2022/03/06 05:30:21;;;;;;;;;;;3.30;99.90;;;;;;5111652;28;19928;-80
2022/03/06 05:32:47;;;;;;;;;;;3.30;99.90;;;;;;5111879;28;19924;-81
2022/03/06 05:35:13;;;;;;;;;;;3.30;99.90;;;;;;5094890;28;20272;-81
2022/03/06 05:37:39;;;;;;;;;;;3.20;99.90;;;;;;5128686;28;19931;-81
2022/03/06 05:40:05;;;;;;;;;;;3.30;99.90;;;;;;5101043;28;19924;-80
2022/03/06 05:42:31;;;;;;;;;;;3.30;99.90;;;;;;5103602;28;19927;-80
2022/03/06 05:44:57;;;;;;;;;;;3.30;99.90;;;;;;5112132;28;19947;-81
2022/03/06 05:47:22;;;;;;;;;;;3.30;99.90;;;;;;5078468;28;19977;-82
2022/03/06 05:49:48;;;;;;;;;;;3.30;99.90;;;;;;5112572;28;20042;-80
2022/03/06 05:52:13;;;;;;;;;;;3.40;99.90;;;;;;5094749;28;20282;-81
2022/03/06 05:54:39;;;;;;;;;;;3.30;99.90;;;;;;5095560;28;19924;-81
2022/03/06 05:57:05;;;;;;;;;;;3.30;99.90;;;;;;5112070;28;19930;-80
2022/03/06 05:59:30;;;;;;;;;;;3.20;99.90;;;;;;5130489;27;19969;-81
2022/03/06 06:01:56;;;;;;;;;;;3.20;99.90;;;;;;5133234;27;19974;-80
2022/03/06 06:04:22;;;;;;;;;;;3.20;99.90;;;;;;5150712;27;19938;-80
2022/03/06 06:06:47;;;;;;;;;;;3.10;99.90;;;;;;5112292;28;20368;-81
2022/03/06 06:09:13;;;;;;;;;;;3.10;99.90;;;;;;5113914;28;19927;-86
2022/03/06 06:11:38;;;;;;;;;;;3.10;99.90;;;;;;5103909;28;20248;-81
2022/03/06 06:14:04;;;;;;;;;;;3.00;99.90;;;;;;5098672;28;20015;-82
2022/03/06 06:16:30;;;;;;;;;;;3.00;99.90;;;;;;5115219;28;19939;-81
2022/03/06 06:18:56;;;;;;;;;;;3.00;99.90;;;;;;5115746;28;19931;-81
2022/03/06 06:21:21;;;;;;;;;;;3.00;99.90;;;;;;5090371;28;20296;-80
2022/03/06 06:23:47;;;;;;;;;;;3.00;99.90;;;;;;5115363;28;20014;-81
2022/03/06 06:26:13;;;;;;;;;;;3.00;99.90;;;;;;5098203;28;19942;-80
2022/03/06 06:28:38;;;;;;;;;;;3.00;99.90;;;;;;5115048;28;19930;-81
2022/03/06 06:31:07;;;;;;;;;;;3.00;99.90;;;;;;5097975;28;19924;-85
2022/03/06 06:33:34;;;;;;;;;;;2.90;99.90;;;;;;5132130;27;19927;-82
2022/03/06 06:36:00;;;;;;;;;;;2.90;99.90;;;;;;5115515;28;20014;-81
2022/03/06 06:38:26;;;;;;;;;;;2.90;99.90;;;;;;5109886;28;20077;-81
2022/03/06 06:40:51;;;;;;;;;;;2.90;99.90;;;;;;5112198;28;19928;-82
2022/03/06 06:43:18;;;;;;;;;;;2.80;99.90;;;;;;5081370;28;19931;-81
2022/03/06 06:45:43;;;;;;;;;;;2.80;99.90;;;;;;5115218;28;19977;-80
2022/03/06 06:48:09;;;;;;;;;;;2.70;99.90;;;;;;5096626;28;20372;-79
2022/03/06 06:50:35;;;;;;;;;;;2.70;99.90;;;;;;5115415;27;20356;-80
2022/03/06 06:53:00;;;;;;;;;;;2.60;99.90;;;;;;5119175;27;20367;-81
2022/03/06 06:55:26;;;;;;;;;;;2.60;99.90;;;;;;5111442;28;19924;-81
2022/03/06 06:57:51;;;;;;;;;;;2.50;99.90;;;;;;5094471;28;20015;-79
2022/03/06 07:00:17;;;;;;;;;;;2.50;99.90;;;;;;5077450;28;19924;-77
2022/03/06 07:02:42;;;;;;;;;;;2.50;99.90;;;;;;5096396;28;20365;-78
2022/03/06 07:05:09;;;;;;;;;;;2.40;99.90;;;;;;5125045;27;20363;-80
2022/03/06 07:07:35;;;;;;;;;;;2.40;99.90;;;;;;5132000;27;20315;-80
2022/03/06 07:10:01;;;;;;;;;;;2.40;99.90;;;;;;5102079;28;19924;-82
2022/03/06 07:12:26;;;;;;;;;;;2.40;99.90;;;;;;5114521;27;19930;-80
2022/03/06 07:14:52;;;;;;;;;;;2.40;99.90;;;;;;5114706;28;19928;-79
2022/03/06 07:17:17;;;;;;;;;;;2.40;99.90;;;;;;5146580;27;19924;-80
2022/03/06 07:19:44;;;;;;;;;;;2.50;99.90;;;;;;5152501;27;19924;-79
2022/03/06 07:22:10;;;;;;;;;;;2.50;99.90;;;;;;5129577;27;19924;-80
2022/03/06 07:24:36;;;;;;;;;;;2.50;99.90;;;;;;5114865;28;20061;-81
2022/03/06 07:27:01;;;;;;;;;;;2.60;99.90;;;;;;5126922;27;19934;-81
2022/03/06 07:29:27;;;;;;;;;;;2.60;99.90;;;;;;5161129;27;19924;-80
2022/03/06 07:31:52;;;;;;;;;;;2.60;99.90;;;;;;5080562;28;20363;-79
2022/03/06 07:34:18;;;;;;;;;;;2.70;99.90;;;;;;5114363;28;19928;-80
2022/03/06 07:36:44;;;;;;;;;;;2.70;99.90;;;;;;5113989;28;19923;-79
2022/03/06 07:39:09;;;;;;;;;;;2.80;99.90;;;;;;5097107;28;19931;-83
2022/03/06 07:41:35;;;;;;;;;;;2.80;99.90;;;;;;5131364;27;19924;-80
2022/03/06 07:44:00;;;;;;;;;;;2.90;99.90;;;;;;5131157;27;19923;-78
2022/03/06 07:46:26;;;;;;;;;;;2.90;99.90;;;;;;5093530;28;19962;-79
2022/03/06 07:48:51;;;;;;;;;;;2.90;99.90;;;;;;5114206;28;19927;-79
2022/03/06 07:51:19;;;;;;;;;;;3.10;99.90;;;;;;5096393;28;20364;-79
2022/03/06 07:53:44;;;;;;;;;;;3.10;99.90;;;;;;5096298;28;19924;-78
2022/03/06 07:56:10;;;;;;;;;;;3.10;99.90;;;;;;5115494;27;19931;-79
2022/03/06 07:58:35;;;;;;;;;;;3.20;99.90;;;;;;5143053;27;20034;-78
2022/03/06 08:01:02;;;;;;;;;;;3.30;99.90;;;;;;5127756;27;19928;-78
2022/03/06 08:03:27;;;;;;;;;;;3.30;99.90;;;;;;5097093;28;19973;-79
2022/03/06 08:05:53;;;;;;;;;;;3.40;99.90;;;;;;5112895;27;19927;-81
2022/03/06 08:08:19;;;;;;;;;;;3.50;99.90;;;;;;5129923;27;19931;-78
2022/03/06 08:10:44;;;;;;;;;;;3.50;99.90;;;;;;5112643;27;19970;-79
2022/03/06 08:13:10;;;;;;;;;;;3.60;99.90;;;;;;5125319;27;19924;-78
2022/03/06 08:15:36;;;;;;;;;;;3.70;99.90;;;;;;5110580;28;19931;-78
2022/03/06 08:18:02;;;;;;;;;;;3.70;99.90;;;;;;5075646;28;20290;-79
2022/03/06 08:20:27;;;;;;;;;;;3.80;99.90;;;;;;5111069;27;20014;-80
2022/03/06 08:22:53;;;;;;;;;;;3.80;99.90;;;;;;5111796;28;19981;-81
2022/03/06 08:25:20;;;;;;;;;;;3.90;99.90;;;;;;5113171;27;19930;-79
2022/03/06 08:27:46;;;;;;;;;;;3.90;99.90;;;;;;5113464;28;19993;-79
2022/03/06 08:30:12;;;;;;;;;;;4.00;99.90;;;;;;5113145;28;20280;-76
2022/03/06 08:32:38;;;;;;;;;;;4.00;99.90;;;;;;5096014;28;19923;-79
2022/03/06 08:35:03;;;;;;;;;;;4.10;99.90;;;;;;5130810;27;19975;-79
2022/03/06 08:37:29;;;;;;;;;;;4.10;99.90;;;;;;5096156;28;19924;-80
2022/03/06 08:39:55;;;;;;;;;;;4.30;99.90;;;;;;5112964;28;19959;-81
2022/03/06 08:42:20;;;;;;;;;;;4.30;99.90;;;;;;5095994;28;19930;-80
2022/03/06 08:44:46;;;;;;;;;;;4.40;99.90;;;;;;5130337;27;19931;-79
2022/03/06 08:47:11;;;;;;;;;;;4.40;99.90;;;;;;5113572;28;20012;-80
2022/03/06 08:49:37;;;;;;;;;;;4.50;99.90;;;;;;5095048;28;19927;-84
2022/03/06 08:52:03;;;;;;;;;;;4.50;99.90;;;;;;5105036;28;19924;-82
2022/03/06 08:54:28;;;;;;;;;;;4.60;99.90;;;;;;5112768;28;19924;-82
2022/03/06 08:56:54;;;;;;;;;;;4.60;99.90;;;;;;5112902;28;20374;-81
2022/03/06 08:59:20;;;;;;;;;;;4.70;99.90;;;;;;5074122;28;19983;-81
2022/03/06 09:01:48;;;;;;;;;;;4.70;99.90;;;;;;5093438;28;19931;-79
2022/03/06 09:04:14;;;;;;;;;;;4.80;99.90;;;;;;5128770;27;20393;-80
2022/03/06 09:06:41;;;;;;;;;;;4.70;99.90;;;;;;5111348;28;19919;-81
2022/03/06 09:09:07;;;;;;;;;;;4.80;99.90;;;;;;5121249;28;19962;-81
2022/03/06 09:11:33;;;;;;;;;;;4.80;99.90;;;;;;5093951;28;19959;-82
2022/03/06 09:13:59;;;;;;;;;;;4.90;99.90;;;;;;5146995;27;20361;-82
2022/03/06 09:16:25;;;;;;;;;;;5.00;99.90;;;;;;5092891;28;19925;-84
2022/03/06 09:18:51;;;;;;;;;;;5.00;99.90;;;;;;5115053;28;19924;-82
2022/03/06 09:21:17;;;;;;;;;;;5.00;99.90;;;;;;5104060;28;19924;-82
2022/03/06 09:23:42;;;;;;;;;;;5.10;99.90;;;;;;5118622;28;20268;-86
2022/03/06 09:26:08;;;;;;;;;;;5.10;99.90;;;;;;5107931;28;19924;-84
2022/03/06 09:28:34;;;;;;;;;;;5.10;99.90;;;;;;5112304;28;19924;-81
2022/03/06 09:30:59;;;;;;;;;;;5.10;99.90;;;;;;5095537;28;19923;-81
2022/03/06 09:33:25;;;;;;;;;;;5.20;99.90;;;;;;5095287;28;19931;-81
2022/03/06 09:35:50;;;;;;;;;;;5.30;99.90;;;;;;5098900;28;20272;-80
2022/03/06 09:38:16;;;;;;;;;;;5.40;99.90;;;;;;5098571;28;19932;-79
2022/03/06 09:40:42;;;;;;;;;;;5.40;99.90;;;;;;5112614;28;19939;-79
2022/03/06 09:43:10;;;;;;;;;;;5.40;99.90;;;;;;5092635;28;19972;-79
2022/03/06 09:45:39;;;;;;;;;;;5.50;99.90;;;;;;5110651;28;19963;-79
2022/03/06 09:48:05;;;;;;;;;;;5.50;99.90;;;;;;5117382;27;19924;-80
2022/03/06 09:50:31;;;;;;;;;;;5.60;99.90;;;;;;5112694;28;19931;-81
2022/03/06 09:52:57;;;;;;;;;;;5.60;99.90;;;;;;5112410;28;19924;-79
2022/03/06 09:55:22;;;;;;;;;;;5.60;99.90;;;;;;5095857;28;19946;-88
2022/03/06 09:57:52;;;;;;;;;;;5.60;99.90;;;;;;5094812;28;19935;-80
2022/03/06 10:00:18;;;;;;;;;;;5.70;99.90;;;;;;5114414;28;19928;-80
2022/03/06 10:02:50;;;;;;;;;;;5.80;99.90;;;;;;5092170;28;19951;-80
2022/03/06 10:05:33;;;;;;;;;;;5.90;99.90;;;;;;5126176;27;19924;-87
2022/03/06 10:08:28;;;;;;;;;;;5.90;99.90;;;;;;5106637;28;19931;-80
2022/03/06 10:10:58;;;;;;;;;;;6.00;99.90;;;;;;5097529;28;19931;-80
2022/03/06 10:13:31;;;;;;;;;;;6.00;99.90;;;;;;5101607;28;19931;-81
2022/03/06 10:15:57;;;;;;;;;;;6.10;99.90;;;;;;5105820;28;20317;-80
2022/03/06 10:18:22;;;;;;;;;;;6.00;99.90;;;;;;5099216;28;19931;-81
2022/03/06 10:20:48;;;;;;;;;;;6.00;99.90;;;;;;5097903;28;19924;-81
2022/03/06 10:23:26;;;;;;;;;;;6.00;99.90;;;;;;5109806;28;19931;-81
2022/03/06 10:26:07;;;;;;;;;;;6.10;99.90;;;;;;5135254;27;19928;-82
2022/03/06 10:28:43;;;;;;;;;;;6.20;99.90;;;;;;5107964;28;20375;-82
2022/03/06 10:31:08;;;;;;;;;;;6.30;99.90;;;;;;5097333;28;19928;-80
2022/03/06 10:33:34;;;;;;;;;;;6.20;99.90;;;;;;5094875;28;19924;-79
2022/03/06 10:36:02;;;;;;;;;;;6.30;99.90;;;;;;5114487;28;20311;-78
2022/03/06 10:38:30;;;;;;;;;;;6.30;99.90;;;;;;5115004;28;19924;-85
2022/03/06 10:41:17;;;;;;;;;;;6.50;99.90;;;;;;5104621;28;19931;-79
2022/03/06 10:43:42;;;;;;;;;;;6.50;99.90;;;;;;5127763;27;20408;-79
2022/03/06 10:46:14;;;;;;;;;;;6.60;99.90;;;;;;5102720;28;20019;-80
2022/03/06 10:48:41;;;;;;;;;;;6.60;99.90;;;;;;5107055;28;20363;-81
2022/03/06 10:51:07;;;;;;;;;;;6.90;99.90;;;;;;5092555;28;20002;-81
2022/03/06 10:53:33;;;;;;;;;;;6.90;99.90;;;;;;5113788;28;19924;-81
2022/03/06 10:56:09;;;;;;;;;;;7.00;99.90;;;;;;5132252;27;19968;-81
2022/03/06 10:58:36;;;;;;;;;;;7.10;99.90;;;;;;5114047;28;19924;-82
2022/03/06 11:01:02;;;;;;;;;;;7.20;99.90;;;;;;5097822;28;19935;-82
2022/03/06 11:03:27;;;;;;;;;;;7.30;99.90;;;;;;5084266;28;19924;-82
2022/03/06 11:05:53;;;;;;;;;;;7.30;99.90;;;;;;5094476;28;19975;-84
2022/03/06 11:08:18;;;;;;;;;;;7.60;99.90;;;;;;5103916;28;20444;-81
2022/03/06 11:10:44;;;;;;;;;;;7.80;99.90;;;;;;5142917;27;20390;-78
2022/03/06 11:13:14;;;;;;;;;;;7.90;99.90;;;;;;5146898;27;19966;-81
2022/03/06 11:15:40;;;;;;;;;;;8.00;99.90;;;;;;5097441;28;19977;-79
2022/03/06 11:18:06;;;;;;;;;;;8.10;99.90;;;;;;5114610;28;19972;-76
2022/03/06 11:20:32;;;;;;;;;;;8.10;99.90;;;;;;5086963;28;20402;-85
2022/03/06 11:23:02;;;;;;;;;;;8.20;99.90;;;;;;5094289;28;20340;-81
2022/03/06 11:25:29;;;;;;;;;;;8.20;99.90;;;;;;5094064;28;20280;-79
2022/03/06 11:28:21;;;;;;;;;;;7.90;99.90;;;;;;5093947;28;19973;-79
2022/03/06 11:30:46;;;;;;;;;;;8.00;99.90;;;;;;5092508;28;19924;-79
2022/03/06 11:33:13;;;;;;;;;;;8.00;99.90;;;;;;5095561;28;19973;-79
2022/03/06 11:35:43;;;;;;;;;;;8.10;99.90;;;;;;5093758;28;19924;-81
2022/03/06 11:38:13;;;;;;;;;;;8.00;99.90;;;;;;5110990;28;19924;-79
2022/03/06 11:40:54;;;;;;;;;;;8.00;99.90;;;;;;5101549;28;19923;-80
2022/03/06 11:43:30;;;;;;;;;;;7.90;99.90;;;;;;5096573;28;19924;-80
2022/03/06 11:46:16;;;;;;;;;;;7.90;99.90;;;;;;5113766;28;19931;-83
2022/03/06 11:48:42;;;;;;;;;;;8.10;99.90;;;;;;5095977;28;19928;-80
2022/03/06 11:51:27;;;;;;;;;;;8.40;99.90;;;;;;5096825;28;20003;-81
2022/03/06 11:53:52;;;;;;;;;;;8.60;99.90;;;;;;5147246;27;20436;-80
2022/03/06 11:56:39;;;;;;;;;;;8.50;99.90;;;;;;5119175;27;19974;-81
2022/03/06 11:59:17;;;;;;;;;;;8.60;99.90;;;;;;5113600;28;19931;-79
2022/03/06 12:01:47;;;;;;;;;;;8.60;99.90;;;;;;5101845;28;19958;-81
2022/03/06 12:04:13;;;;;;;;;;;8.60;99.90;;;;;;5110242;28;19924;-80
2022/03/06 12:06:39;;;;;;;;;;;8.90;99.90;;;;;;5110198;28;20257;-80
2022/03/06 12:09:15;;;;;;;;;;;8.90;99.90;;;;;;5094497;28;19972;-80
2022/03/06 12:11:41;;;;;;;;;;;9.10;99.90;;;;;;5091661;28;19924;-80
2022/03/06 12:14:13;;;;;;;;;;;9.10;99.90;;;;;;5090567;28;19923;-78
2022/03/06 12:16:57;;;;;;;;;;;9.20;99.90;;;;;;5139582;27;20386;-79
2022/03/06 12:19:23;;;;;;;;;;;9.00;99.90;;;;;;5097260;28;19924;-82
2022/03/06 12:21:48;;;;;;;;;;;8.90;99.90;;;;;;5117960;27;20430;-79
2022/03/06 12:24:26;;;;;;;;;;;9.20;99.90;;;;;;5096538;28;20033;-83
2022/03/06 12:26:53;;;;;;;;;;;9.50;99.90;;;;;;5095840;28;19978;-79
2022/03/06 12:29:37;;;;;;;;;;;9.30;99.90;;;;;;5110243;28;19928;-78
2022/03/06 12:32:22;;;;;;;;;;;9.20;99.90;;;;;;5129870;27;20003;-81
2022/03/06 12:34:53;;;;;;;;;;;9.10;99.90;;;;;;5096058;28;19931;-79
2022/03/06 12:37:22;;;;;;;;;;;9.00;99.90;;;;;;5113886;27;19932;-80
2022/03/06 12:39:48;;;;;;;;;;;8.90;99.90;;;;;;5100193;28;19986;-80
2022/03/06 12:42:13;;;;;;;;;;;8.90;99.90;;;;;;5079106;28;19936;-80
2022/03/06 12:44:44;;;;;;;;;;;8.90;99.90;;;;;;5078898;28;19931;-80
2022/03/06 12:47:10;;;;;;;;;;;8.80;99.90;;;;;;5129353;27;20473;-80
2022/03/06 12:49:36;;;;;;;;;;;8.80;99.90;;;;;;5141525;27;20018;-80
2022/03/06 12:52:01;;;;;;;;;;;8.90;99.90;;;;;;5129647;27;19965;-81
2022/03/06 12:54:27;;;;;;;;;;;9.10;99.90;;;;;;5095424;28;20018;-81
2022/03/06 12:56:57;;;;;;;;;;;9.10;99.90;;;;;;5113997;28;19977;-81
2022/03/06 12:59:23;;;;;;;;;;;9.10;99.90;;;;;;5096066;28;19931;-80
2022/03/06 13:01:49;;;;;;;;;;;9.20;99.90;;;;;;5112452;28;19923;-81
2022/03/06 13:04:16;;;;;;;;;;;9.20;99.90;;;;;;5096153;28;19946;-81
2022/03/06 13:06:42;;;;;;;;;;;9.30;99.90;;;;;;5112842;28;19993;-85
2022/03/06 13:09:08;;;;;;;;;;;9.30;99.90;;;;;;5092458;28;20375;-81
2022/03/06 13:11:35;;;;;;;;;;;9.20;99.90;;;;;;5096682;28;19924;-81
2022/03/06 13:14:05;;;;;;;;;;;9.10;99.90;;;;;;5103525;28;19930;-79
2022/03/06 13:16:30;;;;;;;;;;;8.90;99.90;;;;;;5151264;27;19924;-80
2022/03/06 13:19:04;;;;;;;;;;;9.30;99.90;;;;;;5088687;28;19931;-82
2022/03/06 13:21:30;;;;;;;;;;;9.50;99.90;;;;;;5096205;28;20417;-80
2022/03/06 13:24:00;;;;;;;;;;;9.90;99.90;;;;;;5141189;27;20022;-79
2022/03/06 13:26:26;;;;;;;;;;;9.90;99.90;;;;;;5120164;27;19924;-79
2022/03/06 13:28:53;;;;;;;;;;;9.60;99.90;;;;;;5084084;27;19928;-81
2022/03/06 13:31:18;;;;;;;;;;;9.50;99.90;;;;;;5080848;28;19931;-79
2022/03/06 13:33:44;;;;;;;;;;;9.40;99.90;;;;;;5087410;28;20363;-79
2022/03/06 13:36:15;;;;;;;;;;;9.20;99.90;;;;;;5098847;28;19975;-79
2022/03/06 13:38:41;;;;;;;;;;;9.20;99.90;;;;;;5116677;28;20414;-79
2022/03/06 13:41:09;;;;;;;;;;;9.20;99.90;;;;;;5099360;28;19996;-80
2022/03/06 13:43:38;;;;;;;;;;;9.10;99.90;;;;;;5115224;28;19924;-79
2022/03/06 13:46:08;;;;;;;;;;;9.00;99.90;;;;;;5098820;28;20014;-79
2022/03/06 13:48:36;;;;;;;;;;;9.10;99.90;;;;;;5131300;27;19969;-79
2022/03/06 13:51:04;;;;;;;;;;;9.10;99.90;;;;;;5116327;28;19928;-79
2022/03/06 13:53:30;;;;;;;;;;;9.20;99.90;;;;;;5115478;28;19980;-79
2022/03/06 13:55:58;;;;;;;;;;;9.10;99.90;;;;;;5098899;28;19924;-79
2022/03/06 13:58:24;;;;;;;;;;;9.10;99.90;;;;;;5116427;28;19977;-79
2022/03/06 14:00:57;;;;;;;;;;;9.10;99.90;;;;;;5098786;28;19935;-79
2022/03/06 14:03:27;;;;;;;;;;;9.10;99.90;;;;;;5116171;28;19934;-79
2022/03/06 14:05:53;;;;;;;;;;;9.20;99.90;;;;;;5099194;28;19928;-79
2022/03/06 14:08:20;;;;;;;;;;;9.40;99.90;;;;;;5115964;28;20014;-79
2022/03/06 14:10:51;;;;;;;;;;;9.70;99.90;;;;;;5116119;28;19924;-79
2022/03/06 14:13:20;;;;;;;;;;;9.80;99.90;;;;;;5115495;27;20371;-79
2022/03/06 14:15:45;;;;;;;;;;;9.80;99.90;;;;;;5100299;27;19923;-79
2022/03/06 14:18:11;;;;;;;;;;;9.60;99.90;;;;;;5102319;28;20003;-79
2022/03/06 14:20:46;;;;;;;;;;;10.20;99.90;;;;;;5112578;27;19923;-78
2022/03/06 14:23:11;;;;;;;;;;;10.40;99.90;;;;;;5118991;27;19928;-78
2022/03/06 14:25:37;;;;;;;;;;;10.40;99.90;;;;;;5119244;27;19931;-79
2022/03/06 14:28:03;;;;;;;;;;;10.50;99.90;;;;;;5102536;28;20038;-79
2022/03/06 14:30:28;;;;;;;;;;;10.50;99.90;;;;;;5130999;27;19979;-79